Startpagina
METAR-TAF:

METAR-TAF

Vliegvelden :

Productieplatform

Euro, Nederland

breedte: 51-59-52N, lengte: 3-16-30E, hoogte: 18 m

Actueel weer

Dit bericht is 29 minuten geleden gemaakt, om 04:55 UTC
Wind 3 kt uit het oostzuidoosten, variërend tussen het oostnoordoosten en het zuiden
Temperatuur 5°C
Vochtigheid 65%
Druk 1027 hPa
Zicht 10 km of meer

METAR: EHSA 070455Z AUTO 12003KT 070V170 9999 ///////// 05/M01 Q1027 W07/H8

Tijdstip: 06:24 (05:24 UTC)


TAF: ontbreekt

Waarnemingen en weersverwachtingen van meer dan 4000 vliegvelden (METAR en TAF).

De beschikbare stations zijn de gele en rode punten op de kaart.

Ga met uw muis naar het station om de naam te zien.

Klik dan om waarnemingen en weersverwachtingen te zien.

kaart wijzigen: klik op de groene knoppen met een zwart kruis om in te zoomen, op de groene knop met een streepje om uit te zoomen of op de groene pijlen voor aangrenzende kaarten.


METAR-TAF: